KRQE

Window Rock Airport

Window Rock, Arizona, USA
METAR KRQE 191053Z AUTO 00000KT 10SM BKN100 17/04 A3012 RMK AO2 SLP060 T01720044
Observed Flight Rules
Sep-19 @ 10:53 UTC (18 minutes ago) Visual Flight Rules
Visibility Clouds
10 miles
  • Broken at 10,000' AGL
Temperatures Readings
Current 17°C / 63°F
Dewpoint 4°C / 39°F
Humidity 42%
Altimeter 30.12" Hg
Pressure 1006 hPa
Elevation 2055
METAR KRQE 191053Z AUTO 00000KT 10SM BKN100 17/04 A3012 RMK AO2 SLP060 T01720044
Observed Flight Rules
Sep-19 @ 10:53 UTC
(18 minutes ago)
VFR
Clouds
  • Broken at 10,000' AGL
Temperature Dewpoint
17°C / 63°F 4°C / 39°F
Humidity Altimeter Pressure
42% 30.12" Hg 1006 hPa